Time;durP1;ratioP1;P1;durP2;ratioP2;P2;SDS_P1;SDS_P2;PMS_P1;PMS_P2;Temp;Humidity;BMP_temperature;BMP_pressure;BME280_temperature;BME280_humidity;BME280_pressure;Samples;Min_cycle;Max_cycle;Signal;HPM_P1;HPM_P2
2022/08/27 00:02:04;;;;;;;15.77;4.10;;;;;;;15.84;100.00;101591.34;5044116;28;20033;-64
2022/08/27 00:04:30;;;;;;;14.82;3.70;;;;;;;15.74;100.00;101590.50;5043827;28;20057;-61
2022/08/27 00:06:55;;;;;;;15.63;3.90;;;;;;;15.67;100.00;101592.31;5042983;28;20113;-65
2022/08/27 00:09:21;;;;;;;14.60;3.97;;;;;;;15.60;100.00;101593.22;5045321;28;20357;-69
2022/08/27 00:11:47;;;;;;;16.52;4.13;;;;;;;15.53;100.00;101586.16;5041900;28;20028;-69
2022/08/27 00:14:13;;;;;;;16.27;4.00;;;;;;;15.39;100.00;101582.66;5045106;28;20100;-70
2022/08/27 00:16:39;;;;;;;16.90;4.00;;;;;;;15.27;100.00;101580.94;5042638;28;20068;-66
2022/08/27 00:19:05;;;;;;;14.18;3.97;;;;;;;15.18;100.00;101578.31;5043702;28;20049;-69
2022/08/27 00:21:31;;;;;;;16.05;4.00;;;;;;;15.09;100.00;101569.44;5043772;28;20068;-69
2022/08/27 00:23:57;;;;;;;16.38;4.07;;;;;;;14.95;100.00;101568.59;5042678;28;20029;-69
2022/08/27 00:26:23;;;;;;;16.30;3.92;;;;;;;14.87;100.00;101573.03;5044683;28;20027;-70
2022/08/27 00:28:49;;;;;;;15.40;3.95;;;;;;;14.76;100.00;101571.28;5041494;28;20036;-67
2022/08/27 00:31:14;;;;;;;16.17;4.40;;;;;;;14.69;100.00;101571.28;5044544;28;20021;-69
2022/08/27 00:33:40;;;;;;;15.07;4.28;;;;;;;14.60;100.00;101575.69;5042175;28;20079;-69
2022/08/27 00:36:05;;;;;;;15.70;4.30;;;;;;;14.56;100.00;101570.38;5043410;28;20021;-67
2022/08/27 00:38:31;;;;;;;17.65;4.28;;;;;;;14.50;100.00;101568.59;5043162;28;20028;-69
2022/08/27 00:40:56;;;;;;;14.90;4.55;;;;;;;14.42;100.00;101570.41;5042407;28;20037;-69
2022/08/27 00:43:25;;;;;;;18.48;4.80;;;;;;;14.36;100.00;101570.38;5042974;28;20122;-69
2022/08/27 00:45:54;;;;;;;17.05;4.57;;;;;;;14.34;100.00;101577.47;5041078;28;20026;-69
2022/08/27 00:48:23;;;;;;;15.73;4.35;;;;;;;14.30;100.00;101569.50;5037879;28;20112;-69
2022/08/27 00:50:51;;;;;;;17.55;4.80;;;;;;;14.29;100.00;101572.16;5037309;28;20029;-68
2022/08/27 00:53:21;;;;;;;18.23;4.68;;;;;;;14.27;100.00;101571.25;5036918;28;20053;-69
2022/08/27 00:56:19;;;;;;;19.63;4.78;;;;;;;14.24;100.00;101574.84;5037431;28;20021;-68
2022/08/27 00:58:48;;;;;;;17.85;4.68;;;;;;;14.20;100.00;101578.38;5002630;28;20033;-69
2022/08/27 01:01:18;;;;;;;16.88;4.88;;;;;;;14.14;100.00;101581.03;4999778;28;20525;-68
2022/08/27 01:03:46;;;;;;;17.52;4.38;;;;;;;14.06;100.00;101578.34;5002369;28;20034;-63
2022/08/27 01:06:14;;;;;;;17.15;4.60;;;;;;;14.03;100.00;101578.34;4999864;28;20030;-65
2022/08/27 01:08:44;;;;;;;18.40;4.72;;;;;;;14.00;100.00;101574.81;5001914;28;20045;-66
2022/08/27 01:11:11;;;;;;;16.02;4.55;;;;;;;13.99;100.00;101575.66;5000105;28;20037;-66
2022/08/27 01:13:37;;;;;;;15.18;4.60;;;;;;;13.95;100.00;101565.03;5001175;28;20034;-66
2022/08/27 01:16:04;;;;;;;18.15;5.00;;;;;;;13.93;100.00;101564.13;5000741;28;20042;-66
2022/08/27 01:18:33;;;;;;;17.27;4.80;;;;;;;13.85;100.00;101560.59;5000625;28;20533;-67
2022/08/27 01:21:04;;;;;;;16.92;4.80;;;;;;;13.84;100.00;101568.56;5001337;28;20038;-67
2022/08/27 01:23:43;;;;;;;14.98;4.63;;;;;;;13.80;100.00;101564.13;5000358;28;20112;-67
2022/08/27 01:26:11;;;;;;;15.50;4.63;;;;;;;13.78;100.00;101566.78;4999901;28;20030;-67
2022/08/27 01:28:37;;;;;;;17.42;5.10;;;;;;;13.81;100.00;101563.25;5001431;28;20128;-67
2022/08/27 01:31:04;;;;;;;17.25;5.05;;;;;;;13.84;100.00;101558.81;5000741;28;20034;-67
2022/08/27 01:33:30;;;;;;;17.95;5.00;;;;;;;13.88;100.00;101559.72;5000194;28;20474;-67
2022/08/27 01:35:56;;;;;;;15.75;5.00;;;;;;;13.87;100.00;101561.47;5033643;28;20033;-67
2022/08/27 01:38:23;;;;;;;17.25;4.90;;;;;;;13.77;100.00;101565.91;5040397;28;20043;-67
2022/08/27 01:40:48;;;;;;;16.08;4.88;;;;;;;13.79;100.00;101565.91;5043899;28;20033;-66
2022/08/27 01:43:14;;;;;;;19.30;4.95;;;;;;;13.74;100.00;101559.66;5040893;28;20109;-66
2022/08/27 01:45:47;;;;;;;16.27;4.95;;;;;;;13.70;100.00;101564.09;5043181;28;20040;-69
2022/08/27 01:48:13;;;;;;;16.50;4.82;;;;;;;13.67;100.00;101558.75;5040897;28;20022;-68
2022/08/27 01:50:39;;;;;;;15.80;4.70;;;;;;;13.66;100.00;101556.09;5043045;28;20135;-67
2022/08/27 01:53:09;;;;;;;17.45;5.20;;;;;;;13.70;100.00;101560.53;5040577;28;20041;-68
2022/08/27 01:55:36;;;;;;;16.52;5.07;;;;;;;13.67;100.00;101566.72;5042365;28;20032;-68
2022/08/27 01:58:02;;;;;;;17.80;4.75;;;;;;;13.60;100.00;101554.31;5042406;28;20464;-69
2022/08/27 02:00:31;;;;;;;17.60;4.90;;;;;;;13.56;100.00;101561.38;5041180;28;20037;-68
2022/08/27 02:02:58;;;;;;;17.55;4.90;;;;;;;13.50;100.00;101560.47;5043082;28;20029;-69
2022/08/27 02:05:25;;;;;;;16.95;5.00;;;;;;;13.46;100.00;101556.06;5042783;28;20381;-69
2022/08/27 02:07:50;;;;;;;17.92;4.72;;;;;;;13.41;100.00;101553.34;5047496;28;20383;-69
2022/08/27 02:10:20;;;;;;;16.75;5.10;;;;;;;13.35;100.00;101556.00;5043960;28;20040;-68
2022/08/27 02:12:46;;;;;;;17.02;5.05;;;;;;;13.30;100.00;101547.09;5047692;28;20099;-68
2022/08/27 02:15:11;;;;;;;16.92;4.80;;;;;;;13.25;100.00;101550.63;5044552;28;20480;-69
2022/08/27 02:17:37;;;;;;;17.67;5.07;;;;;;;13.18;100.00;101554.13;5046301;28;20030;-68
2022/08/27 02:20:04;;;;;;;16.65;4.93;;;;;;;13.09;100.00;101556.72;5044679;28;20486;-69
2022/08/27 02:22:30;;;;;;;18.05;4.80;;;;;;;13.09;100.00;101548.75;5045336;28;20121;-69
2022/08/27 02:24:55;;;;;;;19.48;6.07;;;;;;;13.09;100.00;101546.09;5046602;28;20104;-69
2022/08/27 02:27:20;;;;;;;19.45;5.75;;;;;;;13.11;100.00;101547.00;5043939;28;20464;-68
2022/08/27 02:29:46;;;;;;;18.45;5.50;;;;;;;13.07;100.00;101545.22;5047249;28;20025;-65
2022/08/27 02:32:13;;;;;;;19.13;5.53;;;;;;;13.07;100.00;101548.75;5044451;28;20052;-66
2022/08/27 02:34:38;;;;;;;18.05;5.30;;;;;;;13.15;100.00;101537.28;5046147;28;20481;-66
2022/08/27 02:37:04;;;;;;;17.73;5.50;;;;;;;13.14;100.00;101531.09;5045260;28;20021;-65
2022/08/27 02:39:29;;;;;;;19.13;5.60;;;;;;;13.07;100.00;101523.97;5044923;28;20040;-66
2022/08/27 02:41:55;;;;;;;18.05;5.30;;;;;;;13.11;100.00;101539.03;5046884;28;20426;-62
2022/08/27 02:44:20;;;;;;;17.25;5.25;;;;;;;13.06;100.00;101533.72;5043577;28;20464;-66
2022/08/27 02:46:45;;;;;;;17.30;5.65;;;;;;;13.10;100.00;101544.34;5046646;28;20028;-62
2022/08/27 02:49:12;;;;;;;18.20;5.43;;;;;;;13.05;100.00;101542.56;5044283;28;20099;-63
2022/08/27 02:51:37;;;;;;;19.42;6.90;;;;;;;13.14;100.00;101540.84;5045259;28;20181;-64
2022/08/27 02:54:03;;;;;;;18.27;5.93;;;;;;;13.12;100.00;101538.19;5045445;28;20075;-63
2022/08/27 02:56:28;;;;;;;19.88;5.70;;;;;;;13.18;100.00;101539.97;5044149;28;20024;-66
2022/08/27 02:58:54;;;;;;;19.85;6.45;;;;;;;13.25;100.00;101533.78;5046316;28;20464;-65
2022/08/27 03:01:19;;;;;;;18.15;5.90;;;;;;;13.28;100.00;101543.53;5043428;28;20327;-66
2022/08/27 03:03:45;;;;;;;17.80;6.20;;;;;;;13.37;100.00;101540.97;5046129;28;20100;-65
2022/08/27 03:06:11;;;;;;;19.90;6.15;;;;;;;13.37;100.00;101544.50;5043788;28;20487;-63
2022/08/27 03:08:37;;;;;;;19.40;6.03;;;;;;;13.50;100.00;101544.53;5045207;28;20026;-64
2022/08/27 03:11:02;;;;;;;20.05;6.40;;;;;;;13.53;100.00;101544.56;5044775;28;20419;-65
2022/08/27 03:13:28;;;;;;;20.20;6.65;;;;;;;13.60;100.00;101539.28;5043908;28;20032;-62
2022/08/27 03:15:53;;;;;;;19.40;6.82;;;;;;;13.60;100.00;101539.28;5046092;28;20108;-64
2022/08/27 03:18:20;;;;;;;19.45;6.75;;;;;;;13.62;100.00;101533.97;5043144;28;20083;-62
2022/08/27 03:20:53;;;;;;;18.30;6.68;;;;;;;13.56;100.00;101545.44;5046175;28;20074;-64
2022/08/27 03:23:21;;;;;;;19.17;6.20;;;;;;;13.56;100.00;101547.22;5038984;28;20524;-63
2022/08/27 03:25:50;;;;;;;17.80;6.30;;;;;;;13.52;100.00;101546.31;5045952;28;20036;-63
2022/08/27 03:28:18;;;;;;;19.48;6.95;;;;;;;13.56;100.00;101544.56;5043014;28;20021;-66
2022/08/27 03:30:47;;;;;;;19.45;6.57;;;;;;;13.53;100.00;101542.78;5045571;28;20528;-64
2022/08/27 03:33:12;;;;;;;19.67;6.68;;;;;;;13.53;100.00;101544.56;5043520;28;20095;-64
2022/08/27 03:35:38;;;;;;;19.20;6.45;;;;;;;13.45;100.00;101547.19;5044663;28;20029;-62
2022/08/27 03:38:03;;;;;;;19.17;6.80;;;;;;;13.37;100.00;101538.31;5044603;28;20053;-66
2022/08/27 03:40:28;;;;;;;18.73;6.55;;;;;;;13.27;100.00;101537.34;5043151;28;20088;-65
2022/08/27 03:42:54;;;;;;;20.55;7.20;;;;;;;13.24;100.00;101540.88;5045752;28;20025;-65
2022/08/27 03:45:19;;;;;;;19.90;6.93;;;;;;;13.22;100.00;101547.97;5041155;28;20460;-62
2022/08/27 03:47:45;;;;;;;19.02;7.10;;;;;;;13.21;100.00;101547.94;5044355;28;20037;-63
2022/08/27 03:50:10;;;;;;;19.13;7.00;;;;;;;13.21;100.00;101548.81;5043246;28;20056;-66
2022/08/27 03:52:36;;;;;;;19.52;6.90;;;;;;;13.21;100.00;101553.25;5043992;28;20038;-71
2022/08/27 03:55:03;;;;;;;19.58;6.88;;;;;;;13.19;100.00;101555.91;5044367;28;20021;-71
2022/08/27 03:57:28;;;;;;;19.45;7.05;;;;;;;13.18;100.00;101548.81;5042606;28;20025;-72
2022/08/27 03:59:54;;;;;;;20.67;7.15;;;;;;;13.18;100.00;101546.16;5045755;28;20021;-73
2022/08/27 04:02:19;;;;;;;19.67;7.15;;;;;;;13.20;100.00;101546.16;5042088;28;20388;-73
2022/08/27 04:04:44;;;;;;;19.30;7.35;;;;;;;13.20;100.00;101546.16;5044890;28;20079;-73
2022/08/27 04:07:10;;;;;;;18.10;7.05;;;;;;;13.23;100.00;101541.75;5043135;28;20029;-71
2022/08/27 04:09:35;;;;;;;20.42;7.40;;;;;;;13.21;100.00;101548.81;5043438;28;20030;-73
2022/08/27 04:12:01;;;;;;;19.75;6.82;;;;;;;13.25;100.00;101547.97;5044175;28;20092;-71
2022/08/27 04:14:26;;;;;;;19.92;7.30;;;;;;;13.27;100.00;101547.97;5042602;28;20029;-72
2022/08/27 04:16:53;;;;;;;20.23;7.13;;;;;;;13.21;100.00;101538.22;5045265;28;20112;-73
2022/08/27 04:19:18;;;;;;;20.38;7.35;;;;;;;13.14;100.00;101543.50;5037908;28;20029;-72
2022/08/27 04:21:43;;;;;;;19.17;7.47;;;;;;;13.11;100.00;101547.00;5044373;28;20036;-69
2022/08/27 04:24:10;;;;;;;19.20;7.03;;;;;;;13.05;100.00;101547.88;5043085;28;20119;-72
2022/08/27 04:26:38;;;;;;;19.60;7.43;;;;;;;12.99;100.00;101541.63;5043447;28;20026;-72
2022/08/27 04:29:04;;;;;;;18.88;7.43;;;;;;;12.97;100.00;101549.56;5042726;28;20063;-72
2022/08/27 04:31:29;;;;;;;20.23;7.30;;;;;;;12.93;100.00;101544.25;5042381;28;20072;-70
2022/08/27 04:33:55;;;;;;;19.60;7.45;;;;;;;12.91;100.00;101547.78;5044820;28;20065;-66
2022/08/27 04:36:20;;;;;;;20.45;7.15;;;;;;;12.87;100.00;101551.31;5041482;28;20502;-65
2022/08/27 04:38:45;;;;;;;19.70;7.60;;;;;;;12.82;100.00;101550.38;5044422;28;20025;-65
2022/08/27 04:41:21;;;;;;;19.08;7.00;;;;;;;12.81;100.00;101553.03;5042400;28;20116;-63
2022/08/27 04:43:53;;;;;;;19.70;7.63;;;;;;;12.91;100.00;101555.72;5044435;28;20503;-64
2022/08/27 04:46:25;;;;;;;19.42;7.65;;;;;;;13.03;100.00;101559.34;5037123;28;20029;-64
2022/08/27 04:48:51;;;;;;;19.95;7.38;;;;;;;13.17;100.00;101562.97;5037678;28;20053;-65
2022/08/27 04:51:17;;;;;;;21.10;7.60;;;;;;;13.20;100.00;101565.63;5044235;28;20032;-66
2022/08/27 04:53:43;;;;;;;19.42;7.35;;;;;;;13.24;100.00;101551.50;5041837;28;20036;-65
2022/08/27 04:56:13;;;;;;;21.83;7.90;;;;;;;13.33;100.00;101560.38;5043012;28;20431;-63
2022/08/27 04:58:38;;;;;;;20.10;7.80;;;;;;;13.32;100.00;101556.81;5042503;28;20469;-65
2022/08/27 05:01:03;;;;;;;20.02;7.63;;;;;;;13.32;100.00;101556.81;5042615;28;20108;-64
2022/08/27 05:03:28;;;;;;;21.48;8.00;;;;;;;13.32;100.00;101553.28;5043589;28;20017;-66
2022/08/27 05:06:00;;;;;;;20.50;7.95;;;;;;;13.36;100.00;101563.09;5041427;28;20049;-63
2022/08/27 05:08:25;;;;;;;19.80;7.80;;;;;;;13.40;100.00;101560.44;5044305;28;20096;-66
2022/08/27 05:10:50;;;;;;;20.63;7.60;;;;;;;13.54;100.00;101567.56;5040919;28;20540;-66
2022/08/27 05:13:18;;;;;;;21.20;7.90;;;;;;;13.63;100.00;101556.09;5043929;28;20100;-66
2022/08/27 05:15:44;;;;;;;20.92;8.10;;;;;;;13.70;100.00;101563.19;5041488;28;20056;-66
2022/08/27 05:18:10;;;;;;;20.92;8.27;;;;;;;13.73;100.00;101560.53;5043249;28;20034;-65
2022/08/27 05:20:45;;;;;;;21.67;7.78;;;;;;;13.82;100.00;101568.56;5042567;28;20098;-66
2022/08/27 05:23:11;;;;;;;20.23;8.00;;;;;;;13.87;100.00;101561.47;5043260;28;20040;-66
2022/08/27 05:25:39;;;;;;;22.00;8.02;;;;;;;13.89;100.00;101565.03;5042535;28;20032;-64
2022/08/27 05:28:04;;;;;;;21.25;8.50;;;;;;;13.95;100.00;101558.84;5042363;28;20032;-66
2022/08/27 05:30:38;;;;;;;21.52;8.55;;;;;;;14.05;100.00;101562.38;5043677;28;20399;-62
2022/08/27 05:33:03;;;;;;;21.33;8.63;;;;;;;14.16;100.00;101557.97;5042087;28;20048;-65
2022/08/27 05:35:30;;;;;;;21.60;9.10;;;;;;;14.24;100.00;101558.88;5043662;28;20484;-64
2022/08/27 05:37:55;;;;;;;21.70;9.10;;;;;;;14.36;100.00;101565.97;5040911;28;20031;-63
2022/08/27 05:40:22;;;;;;;21.38;8.40;;;;;;;14.47;100.00;101566.84;5045618;28;20021;-66
2022/08/27 05:42:47;;;;;;;22.67;8.60;;;;;;;14.59;100.00;101573.94;5044864;28;20030;-62
2022/08/27 05:45:12;;;;;;;20.92;9.00;;;;;;;14.63;100.00;101570.44;5047308;28;20021;-65
2022/08/27 05:47:38;;;;;;;21.83;9.13;;;;;;;14.70;100.00;101567.75;5046341;28;20025;-62
2022/08/27 05:50:04;;;;;;;20.88;8.63;;;;;;;14.72;100.00;101568.63;5045823;28;20060;-69
2022/08/27 05:52:29;;;;;;;22.25;8.95;;;;;;;14.83;100.00;101574.81;5046942;28;20131;-70
2022/08/27 05:54:54;;;;;;;21.55;8.98;;;;;;;14.87;100.00;101570.38;5044287;28;20372;-70
2022/08/27 05:57:19;;;;;;;21.42;9.10;;;;;;;14.98;100.00;101566.81;5048086;28;20025;-69
2022/08/27 06:02:28;;;;;;;21.90;8.82;;;;;;;15.20;100.00;101573.84;5042343;28;20534;-70
2022/08/27 06:04:54;;;;;;;23.02;9.15;;;;;;;15.29;100.00;101577.38;5047588;28;20111;-69
2022/08/27 06:07:20;;;;;;;22.52;9.05;;;;;;;15.39;100.00;101582.66;5040187;28;20471;-69
2022/08/27 06:09:45;;;;;;;21.27;8.55;;;;;;;15.48;100.00;101582.63;5035070;28;20022;-60
2022/08/27 06:12:10;;;;;;;21.42;8.32;;;;;;;15.49;100.00;101585.28;5031547;28;20464;-61
2022/08/27 06:14:37;;;;;;;21.13;8.57;;;;;;;15.52;100.00;101592.34;5034955;28;20017;-60
2022/08/27 06:17:03;;;;;;;21.30;8.77;;;;;;;15.54;100.00;101592.34;5037241;28;20056;-61
2022/08/27 06:19:28;;;;;;;21.90;8.82;;;;;;;15.58;100.00;101591.44;5037305;28;20381;-61
2022/08/27 06:21:54;;;;;;;21.33;8.85;;;;;;;15.58;100.00;101595.03;5032849;28;20479;-60
2022/08/27 06:24:21;;;;;;;20.45;8.60;;;;;;;15.59;100.00;101585.25;5035036;28;20590;-60
2022/08/27 06:26:47;;;;;;;20.75;8.50;;;;;;;15.65;100.00;101593.19;5040046;28;20024;-61
2022/08/27 06:29:13;;;;;;;21.92;8.82;;;;;;;15.66;100.00;101590.53;5034912;28;20104;-61
2022/08/27 06:31:39;;;;;;;20.88;8.90;;;;;;;15.65;100.00;101591.44;5037784;28;20117;-60
2022/08/27 06:34:06;;;;;;;22.23;8.88;;;;;;;15.64;100.00;101595.00;5037703;28;20506;-61
2022/08/27 06:36:32;;;;;;;20.95;8.73;;;;;;;15.74;100.00;101586.94;5039116;28;20021;-60
2022/08/27 06:38:58;;;;;;;21.65;8.65;;;;;;;15.84;100.00;101591.34;5033829;28;20384;-61
2022/08/27 06:41:26;;;;;;;20.63;8.20;;;;;;;15.93;100.00;101590.41;5034993;28;20108;-61
2022/08/27 06:43:53;;;;;;;21.27;8.30;;;;;;;16.10;100.00;101591.19;5033144;28;20029;-60
2022/08/27 06:46:20;;;;;;;20.88;8.10;;;;;;;16.21;100.00;101589.34;5033318;28;20025;-60
2022/08/27 06:48:48;;;;;;;22.05;8.63;;;;;;;16.29;100.00;101594.59;5034351;28;20072;-60
2022/08/27 06:51:19;;;;;;;21.60;8.27;;;;;;;16.34;100.00;101592.81;5033810;28;20045;-61
2022/08/27 06:53:46;;;;;;;22.00;8.03;;;;;;;16.42;100.00;101594.53;5038495;28;20026;-61
2022/08/27 06:56:13;;;;;;;20.20;8.02;;;;;;;16.58;100.00;101593.50;5041539;28;20022;-60
2022/08/27 06:58:40;;;;;;;20.92;8.40;;;;;;;16.63;100.00;101597.03;5035291;28;20029;-60
2022/08/27 07:01:18;;;;;;;21.17;8.02;;;;;;;16.66;100.00;101594.31;5034032;28;20029;-61
2022/08/27 07:03:44;;;;;;;20.70;7.88;;;;;;;16.65;100.00;101595.22;5032221;28;20099;-61
2022/08/27 07:06:11;;;;;;;20.80;7.70;;;;;;;16.76;100.00;101602.22;5031199;28;20025;-61
2022/08/27 07:08:38;;;;;;;19.33;7.50;;;;;;;16.93;100.00;101600.31;5036629;28;20025;-62
2022/08/27 07:11:04;;;;;;;21.20;7.53;;;;;;;16.99;100.00;101597.56;5034494;28;20032;-61
2022/08/27 07:13:30;;;;;;;19.63;7.10;;;;;;;17.08;100.00;101597.50;5037166;28;20026;-60
2022/08/27 07:15:56;;;;;;;20.42;7.57;;;;;;;17.11;100.00;101598.34;5034267;28;20400;-60
2022/08/27 07:18:21;;;;;;;19.80;7.45;;;;;;;17.18;100.00;101602.72;5036222;28;20026;-60
2022/08/27 07:20:50;;;;;;;20.38;7.35;;;;;;;17.30;100.00;101601.69;5034671;28;20025;-61
2022/08/27 07:23:15;;;;;;;19.75;7.40;;;;;;;17.47;100.00;101606.84;5036718;28;20025;-62
2022/08/27 07:25:41;;;;;;;20.50;7.18;;;;;;;17.52;100.00;101607.69;5037717;28;20025;-61
2022/08/27 07:28:06;;;;;;;20.13;7.70;;;;;;;17.61;100.00;101602.22;5037914;28;20112;-60
2022/08/27 07:30:32;;;;;;;20.15;7.20;;;;;;;17.75;100.00;101610.03;5032603;28;20030;-61
2022/08/27 07:32:57;;;;;;;19.52;6.80;;;;;;;17.84;100.00;101603.69;5039327;28;20090;-61
2022/08/27 07:35:22;;;;;;;20.40;7.45;;;;;;;17.86;100.00;101608.13;5033581;28;20029;-61
2022/08/27 07:37:48;;;;;;;20.75;7.40;;;;;;;17.94;100.00;101610.75;5033094;28;20025;-62
2022/08/27 07:40:14;;;;;;;21.20;6.80;;;;;;;18.02;100.00;101608.81;5032830;28;20025;-60
2022/08/27 07:45:26;;;;;;;18.67;6.90;;;;;;;18.03;100.00;101610.59;5033406;28;20076;-61
2022/08/27 07:47:51;;;;;;;19.80;7.15;;;;;;;18.00;100.00;101613.31;5035078;28;20021;-61
2022/08/27 07:50:17;;;;;;;19.20;6.93;;;;;;;18.05;100.00;101611.44;5032860;28;20036;-62
2022/08/27 07:52:43;;;;;;;20.50;7.28;;;;;;;18.07;100.00;101616.75;5035165;28;20502;-60
2022/08/27 07:55:12;;;;;;;20.40;7.00;;;;;;;18.18;100.00;101616.63;5033117;28;20026;-61
2022/08/27 07:57:38;;;;;;;21.38;6.80;;;;;;;18.35;100.00;101621.69;5034557;28;20030;-64
2022/08/27 08:00:10;;;;;;;19.25;6.50;;;;;;;18.63;100.00;101616.78;5033030;28;20163;-68
2022/08/27 08:02:36;;;;;;;18.58;6.60;;;;;;;18.72;100.00;101616.63;5034397;28;20059;-67
2022/08/27 08:05:02;;;;;;;18.90;6.95;;;;;;;18.76;100.00;101618.34;5034879;28;20392;-68
2022/08/27 08:07:28;;;;;;;19.55;6.43;;;;;;;18.89;100.00;101618.19;5038084;28;20044;-68
2022/08/27 08:09:53;;;;;;;19.08;6.20;;;;;;;19.15;100.00;101626.59;5043232;28;20026;-68
2022/08/27 08:12:18;;;;;;;20.45;6.07;;;;;;;19.38;100.00;101622.56;5044164;28;20036;-68
2022/08/27 08:14:44;;;;;;;19.23;5.30;;;;;;;19.56;100.00;101620.47;5042242;28;20028;-68
2022/08/27 08:17:09;;;;;;;18.35;5.28;;;;;;;19.66;100.00;101622.91;5045124;28;20104;-67
2022/08/27 08:19:35;;;;;;;18.23;5.40;;;;;;;19.79;100.00;101623.56;5042136;28;20024;-68
2022/08/27 08:22:00;;;;;;;17.67;5.13;;;;;;;19.78;100.00;101619.09;5044222;28;20381;-70
2022/08/27 08:24:25;;;;;;;18.67;4.82;;;;;;;19.55;100.00;101611.50;5043047;28;20461;-68
2022/08/27 08:26:51;;;;;;;19.08;5.18;;;;;;;19.47;100.00;101624.19;5042865;28;20029;-67
2022/08/27 08:29:17;;;;;;;18.25;5.35;;;;;;;19.39;100.00;101627.03;5044766;28;20025;-69
2022/08/27 08:31:42;;;;;;;18.98;4.97;;;;;;;19.34;100.00;101626.25;5041827;28;20461;-67
2022/08/27 08:34:08;;;;;;;17.15;5.22;;;;;;;19.40;100.00;101623.44;5044983;28;20021;-68
2022/08/27 08:36:34;;;;;;;18.50;5.80;;;;;;;19.44;100.00;101632.28;5041574;28;20053;-69
2022/08/27 08:38:59;;;;;;;19.30;5.70;;;;;;;19.62;100.00;101636.41;5043817;28;20492;-68
2022/08/27 08:41:32;;;;;;;18.35;5.53;;;;;;;19.78;100.00;101627.16;5043238;28;20082;-69
2022/08/27 08:44:01;;;;;;;17.67;5.40;;;;;;;20.19;100.00;101622.63;5043981;28;20049;-68
2022/08/27 08:46:45;;;;;;;18.50;5.47;;;;;;;20.96;100.00;101630.59;5042456;28;20025;-68
2022/08/27 08:49:35;;;;;;;18.90;5.70;;;;;;;21.89;100.00;101628.88;5037591;28;20045;-66
2022/08/27 08:52:28;;;;;;;15.65;4.47;;;;;;;22.89;95.86;101621.19;5042888;28;20049;-69
2022/08/27 08:54:59;;;;;;;15.95;4.35;;;;;;;23.46;84.30;101627.25;5040906;28;20036;-69
2022/08/27 08:57:34;;;;;;;14.52;4.15;;;;;;;24.11;79.76;101624.78;5042734;28;20087;-67
2022/08/27 09:00:12;;;;;;;15.20;3.75;;;;;;;24.25;77.27;101622.41;5043344;28;20046;-69
2022/08/27 09:02:39;;;;;;;16.83;3.67;;;;;;;24.34;76.55;101626.56;5035758;28;20091;-68
2022/08/27 09:05:07;;;;;;;12.50;3.28;;;;;;;24.49;73.20;101623.25;5044331;28;20112;-69
2022/08/27 09:07:56;;;;;;;13.00;3.50;;;;;;;24.40;78.52;101630.84;5041726;28;20029;-69
2022/08/27 09:10:29;;;;;;;12.38;3.20;;;;;;;24.12;74.43;101627.44;5040730;28;20092;-69
2022/08/27 09:13:01;;;;;;;11.73;3.35;;;;;;;24.04;72.28;101632.25;5042411;28;20031;-69
2022/08/27 09:15:32;;;;;;;11.63;2.78;;;;;;;23.91;71.37;101642.69;5042880;28;20037;-69
2022/08/27 09:18:12;;;;;;;10.82;2.90;;;;;;;23.95;72.46;101630.78;5042121;28;20112;-66
2022/08/27 09:20:41;;;;;;;10.45;2.83;;;;;;;23.72;69.78;101638.88;5037031;28;20032;-65
2022/08/27 09:23:16;;;;;;;12.23;3.08;;;;;;;23.60;71.01;101641.09;5036901;28;20033;-65
2022/08/27 09:25:42;;;;;;;11.40;3.00;;;;;;;23.65;72.15;101644.53;5037640;28;20104;-62
2022/08/27 09:31:04;;;;;;;11.52;2.92;;;;;;;23.81;71.87;101628.63;5042083;28;20044;-65
2022/08/27 09:33:29;;;;;;;11.38;2.80;;;;;;;24.07;70.97;101633.94;5041767;28;20132;-65
2022/08/27 09:35:55;;;;;;;10.63;3.10;;;;;;;24.09;69.44;101632.09;5042594;28;20112;-63
2022/08/27 09:38:29;;;;;;;9.40;2.90;;;;;;;23.97;70.60;101634.34;5037203;28;20029;-62
2022/08/27 09:40:59;;;;;;;13.25;3.13;;;;;;;23.84;70.13;101635.72;5041227;28;20029;-63
2022/08/27 09:43:32;;;;;;;14.10;3.42;;;;;;;23.39;70.73;101632.00;5041501;28;20319;-66
2022/08/27 09:46:00;;;;;;;13.95;3.20;;;;;;;24.18;69.59;101631.72;5041641;28;20021;-66
2022/08/27 09:48:26;;;;;;;11.65;3.10;;;;;;;25.37;61.93;101635.69;5041598;28;20029;-65
2022/08/27 09:50:54;;;;;;;10.17;3.10;;;;;;;26.75;47.86;101634.53;5043232;28;20032;-66
2022/08/27 09:53:25;;;;;;;13.75;3.15;;;;;;;27.39;45.52;101633.03;5040730;28;20367;-65
2022/08/27 09:55:58;;;;;;;11.65;3.10;;;;;;;28.39;43.35;101634.69;5043101;28;20090;-66
2022/08/27 09:58:29;;;;;;;11.48;3.22;;;;;;;28.69;40.97;101625.75;5042002;28;20017;-65
2022/08/27 10:00:59;;;;;;;9.65;2.90;;;;;;;28.57;40.83;101631.84;5042498;28;20492;-66
2022/08/27 10:03:24;;;;;;;9.57;3.08;;;;;;;28.64;39.04;101633.28;5041688;28;20029;-66
2022/08/27 10:05:50;;;;;;;9.48;2.90;;;;;;;29.07;37.26;101647.00;5043452;28;20387;-66
2022/08/27 10:08:40;;;;;;;10.65;2.90;;;;;;;29.93;37.56;101648.03;5040858;28;20026;-65
2022/08/27 10:11:10;;;;;;;11.25;3.00;;;;;;;30.83;33.57;101635.69;5040939;28;20385;-64
2022/08/27 10:14:00;;;;;;;11.07;3.10;;;;;;;31.43;32.82;101631.50;5043058;28;20029;-65
2022/08/27 10:16:40;;;;;;;12.25;2.97;;;;;;;31.45;32.35;101625.91;5039532;28;20014;-66
2022/08/27 10:19:30;;;;;;;10.52;3.03;;;;;;;32.14;33.66;101622.75;5040826;28;20120;-66
2022/08/27 10:22:30;;;;;;;14.13;3.00;;;;;;;30.00;33.85;101620.31;5039788;28;20198;-65
2022/08/27 10:25:12;;;;;;;12.77;3.00;;;;;;;30.70;33.74;101619.28;5000745;28;20041;-65
2022/08/27 10:27:46;;;;;;;11.90;3.10;;;;;;;29.88;34.47;101624.72;5005173;28;20045;-63
2022/08/27 10:30:16;;;;;;;12.95;3.42;;;;;;;29.19;35.16;101619.03;5005806;28;20049;-64
2022/08/27 10:33:00;;;;;;;14.20;3.40;;;;;;;28.61;37.26;101614.44;5005468;28;20468;-67
2022/08/27 10:35:54;;;;;;;11.88;3.05;;;;;;;27.46;38.74;101609.13;5005511;28;20085;-69
2022/08/27 10:38:38;;;;;;;10.90;3.25;;;;;;;26.17;41.88;101613.94;5002463;28;20496;-68
2022/08/27 10:41:14;;;;;;;11.77;2.90;;;;;;;25.86;42.85;101609.97;5002840;28;20037;-67
2022/08/27 10:44:18;;;;;;;10.52;3.20;;;;;;;25.53;43.26;101613.34;5005182;28;20037;-69
2022/08/27 10:47:15;;;;;;;10.85;3.17;;;;;;;25.13;44.58;101621.41;4909317;29;20029;-68
2022/08/27 10:50:01;;;;;;;12.45;3.28;;;;;;;24.78;44.51;101615.72;4879296;29;20048;-67
2022/08/27 10:52:50;;;;;;;12.95;3.03;;;;;;;24.49;45.89;101606.13;4873396;29;20529;-69
2022/08/27 10:55:26;;;;;;;12.15;3.03;;;;;;;24.25;45.04;101600.81;4879186;29;20033;-69
2022/08/27 10:58:05;;;;;;;15.20;3.10;;;;;;;24.26;46.30;101607.97;4876669;29;20568;-69
2022/08/27 11:01:00;;;;;;;11.50;3.00;;;;;;;24.55;45.50;101605.84;4881032;29;20101;-69
2022/08/27 11:03:47;;;;;;;11.38;2.80;;;;;;;24.70;44.38;101599.84;4888059;29;20417;-68
2022/08/27 11:06:38;;;;;;;13.20;3.08;;;;;;;24.78;45.29;101612.16;4886829;29;20524;-68
2022/08/27 11:09:16;;;;;;;10.60;2.75;;;;;;;25.06;44.52;101617.22;4872336;29;20044;-68
2022/08/27 11:11:44;;;;;;;14.57;3.00;;;;;;;24.94;44.16;101610.53;4889905;29;20045;-68
2022/08/27 11:14:44;;;;;;;12.88;2.95;;;;;;;24.98;45.10;101609.44;4886523;29;20485;-68
2022/08/27 11:17:16;;;;;;;12.63;2.88;;;;;;;24.79;44.84;101613.91;4913704;28;20043;-68
2022/08/27 11:20:07;;;;;;;8.90;2.80;;;;;;;24.57;45.59;101606.69;4962442;28;20039;-68
2022/08/27 11:22:49;;;;;;;12.35;2.78;;;;;;;24.75;44.84;101604.19;4964729;28;20497;-67
2022/08/27 11:25:20;;;;;;;9.27;2.70;;;;;;;25.00;44.70;101602.16;4971428;28;20042;-67
2022/08/27 11:27:50;;;;;;;12.13;2.73;;;;;;;25.35;42.80;101605.13;5039444;28;20037;-68
2022/08/27 11:30:15;;;;;;;10.20;2.60;;;;;;;25.89;41.64;101599.91;5039406;28;20526;-68